Time;durP1;ratioP1;P1;durP2;ratioP2;P2;SDS_P1;SDS_P2;PMS_P1;PMS_P2;Temp;Humidity;BMP_temperature;BMP_pressure;BME280_temperature;BME280_humidity;BME280_pressure;Samples;Min_cycle;Max_cycle;Signal;HPM_P1;HPM_P2
2022/08/13 00:02:16;;;;;;;9.07;5.93;;;;;;;23.10;51.02;94965.34;6136466;23;20029;-85
2022/08/13 00:05:05;;;;;;;11.77;6.35;;;;;;;22.78;50.99;94921.44;6138212;23;20014;-84
2022/08/13 00:07:31;;;;;;;7.35;5.72;;;;;;;22.95;50.96;94953.47;6138231;23;20016;-85
2022/08/13 00:09:59;;;;;;;9.13;5.82;;;;;;;23.10;50.97;94954.53;6138161;23;20009;-85
2022/08/13 00:15:25;;;;;;;7.93;6.00;;;;;;;23.05;50.91;94952.88;6138493;23;20495;-84
2022/08/13 00:17:50;;;;;;;12.43;5.88;;;;;;;22.84;50.72;94921.94;6139151;23;20482;-84
2022/08/13 00:20:22;;;;;;;8.95;6.28;;;;;;;22.72;51.13;94898.53;6136307;23;20009;-85
2022/08/13 00:22:48;;;;;;;10.77;6.07;;;;;;;22.97;51.22;94942.28;6136160;23;20029;-84
2022/08/13 00:25:15;;;;;;;9.93;5.55;;;;;;;22.71;51.88;94913.19;6136456;23;20022;-84
2022/08/13 00:27:47;;;;;;;10.32;5.47;;;;;;;22.92;52.07;94956.88;6136514;23;20010;-85
2022/08/13 00:30:15;;;;;;;6.45;5.47;;;;;;;23.18;51.71;94982.50;6135903;23;20068;-84
2022/08/13 00:32:45;;;;;;;7.93;6.60;;;;;;;22.86;52.28;94933.19;6137349;23;20067;-85
2022/08/13 00:35:12;;;;;;;12.23;6.40;;;;;;;22.64;51.93;94907.63;6139684;23;20002;-84
2022/08/13 00:37:41;;;;;;;9.52;5.63;;;;;;;22.73;51.78;94907.44;6138172;23;20075;-84
2022/08/13 00:40:09;;;;;;;9.25;5.55;;;;;;;22.73;52.06;94904.72;6137567;23;20013;-84
2022/08/13 00:42:37;;;;;;;9.93;6.00;;;;;;;23.03;51.75;94947.06;6137639;23;20009;-85
2022/08/13 00:45:05;;;;;;;9.75;5.82;;;;;;;22.60;51.61;94879.75;6140236;23;20548;-85
2022/08/13 00:50:14;;;;;;;11.80;5.82;;;;;;;23.19;51.65;94967.81;6140108;23;20177;-84
2022/08/13 00:52:40;;;;;;;6.47;5.45;;;;;;;23.31;51.41;94973.06;6137698;23;20017;-84
2022/08/13 00:55:15;;;;;;;9.27;5.88;;;;;;;23.14;51.87;94958.06;6137456;23;20447;-85
2022/08/13 00:57:44;;;;;;;14.73;5.88;;;;;;;22.95;51.53;94922.94;6140156;23;20010;-84
2022/08/13 01:00:15;;;;;;;8.25;5.68;;;;;;;23.16;51.48;94961.19;6138124;23;20009;-84
2022/08/13 01:02:42;;;;;;;6.13;5.45;;;;;;;22.80;51.85;94915.69;6138010;23;20010;-84
2022/08/13 01:05:09;;;;;;;9.38;5.95;;;;;;;23.28;51.52;94977.25;6137618;23;20010;-84
2022/08/13 01:07:41;;;;;;;7.13;5.40;;;;;;;22.92;51.92;94942.56;6139662;23;20014;-85
2022/08/13 01:10:09;;;;;;;10.95;5.65;;;;;;;22.81;52.13;94914.56;6137685;23;20163;-84
2022/08/13 01:12:36;;;;;;;6.30;5.70;;;;;;;22.41;52.15;94853.53;6137256;23;20096;-84
2022/08/13 01:15:03;;;;;;;8.38;5.47;;;;;;;22.62;52.17;94901.78;6139651;23;20006;-84
2022/08/13 01:17:30;;;;;;;10.10;6.10;;;;;;;22.75;52.44;94932.97;6138328;23;20100;-84
2022/08/13 01:19:56;;;;;;;11.23;5.38;;;;;;;23.09;52.28;94969.97;6137350;23;20017;-85
2022/08/13 01:22:23;;;;;;;10.30;5.28;;;;;;;23.05;52.64;94979.91;6137213;23;20065;-84
2022/08/13 01:24:50;;;;;;;6.75;5.22;;;;;;;21.97;52.60;94800.91;6139118;23;20012;-85
2022/08/13 01:27:18;;;;;;;6.18;5.00;;;;;;;22.62;52.50;94897.19;6139186;23;20404;-84
2022/08/13 01:29:46;;;;;;;6.72;5.38;;;;;;;23.09;52.66;94971.88;6138672;23;20524;-84
2022/08/13 01:32:15;;;;;;;7.15;5.28;;;;;;;22.68;52.94;94925.47;6137397;23;20716;-84
2022/08/13 01:34:45;;;;;;;7.72;5.95;;;;;;;22.62;53.27;94918.00;6137010;23;20017;-84
2022/08/13 01:37:13;;;;;;;7.78;5.22;;;;;;;22.50;52.96;94902.72;6139826;23;20013;-84
2022/08/13 01:39:39;;;;;;;6.50;5.15;;;;;;;22.89;52.94;94944.06;6137073;23;20033;-85
2022/08/13 01:42:08;;;;;;;6.22;5.43;;;;;;;22.98;52.90;94960.84;6136647;23;20522;-85
2022/08/13 01:44:35;;;;;;;6.78;5.53;;;;;;;22.27;53.46;94845.94;6139242;23;20463;-84
2022/08/13 01:52:34;;;;;;;6.70;5.70;;;;;;;22.96;53.39;94959.66;6139293;23;20064;-84
2022/08/13 01:55:04;;;;;;;8.93;5.40;;;;;;;22.41;53.75;94879.75;6137059;23;20495;-85
2022/08/13 01:57:33;;;;;;;10.38;6.15;;;;;;;22.96;53.68;94949.59;6137032;23;20021;-84
2022/08/13 02:00:00;;;;;;;10.88;6.13;;;;;;;22.33;53.79;94866.09;6139698;23;20428;-84
2022/08/13 02:02:30;;;;;;;7.32;5.65;;;;;;;22.64;53.73;94915.75;6136671;23;20468;-84
2022/08/13 02:04:55;;;;;;;9.32;5.10;;;;;;;22.68;53.80;94922.00;6138338;23;20014;-84
2022/08/13 02:07:21;;;;;;;8.35;6.07;;;;;;;22.58;53.85;94893.59;6139038;23;20021;-84
2022/08/13 02:09:47;;;;;;;8.52;5.47;;;;;;;22.26;53.93;94843.56;6138176;23;20020;-84
2022/08/13 02:12:14;;;;;;;7.10;5.22;;;;;;;22.82;54.25;94933.09;6137275;23;20009;-84
2022/08/13 02:14:44;;;;;;;8.30;5.82;;;;;;;22.67;54.44;94950.16;6138672;23;20044;-84
2022/08/13 02:17:25;;;;;;;6.80;6.10;;;;;;;22.44;54.43;94906.06;6136092;23;20925;-84
2022/08/13 02:19:55;;;;;;;7.85;6.07;;;;;;;22.36;54.03;94882.72;6136737;23;20383;-84
2022/08/13 02:22:22;;;;;;;6.87;5.67;;;;;;;22.80;54.42;94948.13;6136475;23;20024;-84
2022/08/13 02:24:53;;;;;;;8.20;5.72;;;;;;;22.80;54.33;94951.63;6138609;23;20009;-84
2022/08/13 02:27:24;;;;;;;7.78;5.70;;;;;;;21.91;54.35;94809.25;6139112;23;20084;-85
2022/08/13 02:29:51;;;;;;;;;;;;;;;22.81;54.26;94949.72;6137426;23;20356;-84
2022/08/13 02:32:18;;;;;;;9.45;5.70;;;;;;;21.91;54.47;94811.16;6136451;23;20318;-85
2022/08/13 02:34:51;;;;;;;10.82;6.05;;;;;;;22.67;54.28;94921.19;6137011;23;20072;-84
2022/08/13 02:37:21;;;;;;;9.18;6.43;;;;;;;21.97;54.41;94812.47;6136832;23;20014;-84
2022/08/13 02:39:51;;;;;;;9.73;5.50;;;;;;;22.52;54.09;94895.03;6138513;23;20107;-84
2022/08/13 02:42:18;;;;;;;7.50;5.88;;;;;;;21.65;54.53;94765.13;6136823;23;20052;-84
2022/08/13 02:44:47;;;;;;;8.98;6.47;;;;;;;22.47;54.90;94897.25;6136820;23;20424;-84
2022/08/13 02:47:14;;;;;;;9.98;6.07;;;;;;;22.25;54.78;94850.88;6136931;23;20010;-84
2022/08/13 02:49:40;;;;;;;10.48;6.68;;;;;;;22.24;54.93;94862.81;6138507;23;20415;-84
2022/08/13 02:52:08;;;;;;;14.32;5.88;;;;;;;22.72;54.62;94922.84;6137050;23;20363;-84
2022/08/13 02:54:39;;;;;;;10.38;6.28;;;;;;;22.26;54.57;94860.56;6139741;23;20009;-84
2022/08/13 02:57:05;;;;;;;7.35;6.60;;;;;;;22.21;54.80;94841.13;6138333;23;20061;-84
2022/08/13 02:59:30;;;;;;;10.98;6.13;;;;;;;22.84;54.61;94952.47;6137128;23;20043;-85
2022/08/13 03:01:56;;;;;;;11.15;6.47;;;;;;;22.65;54.58;94912.69;6138808;23;20505;-85
2022/08/13 03:04:22;;;;;;;12.18;6.32;;;;;;;22.12;54.21;94844.06;6139169;23;20040;-84
2022/08/13 03:06:49;;;;;;;13.88;7.20;;;;;;;22.16;54.54;94873.84;6137024;23;20122;-85
2022/08/13 03:09:16;;;;;;;11.80;6.75;;;;;;;21.96;55.29;94881.09;6137532;23;20013;-84
2022/08/13 03:11:42;;;;;;;13.70;7.22;;;;;;;21.89;55.28;94875.56;6136482;23;20044;-84
2022/08/13 03:14:09;;;;;;;14.73;6.82;;;;;;;22.44;55.33;94951.97;6137277;23;20021;-85
2022/08/13 03:16:35;;;;;;;12.40;6.72;;;;;;;22.17;55.00;94878.88;6137105;23;20013;-84
2022/08/13 03:19:01;;;;;;;11.65;7.00;;;;;;;22.12;55.17;94886.50;6136399;23;20017;-84
2022/08/13 03:21:34;;;;;;;14.50;7.15;;;;;;;22.08;55.39;94888.31;6139322;23;20527;-84
2022/08/13 03:24:00;;;;;;;11.57;7.30;;;;;;;22.44;55.77;94949.28;6138552;23;20009;-84
2022/08/13 03:26:26;;;;;;;14.00;6.82;;;;;;;22.12;56.19;94929.69;6136837;23;20017;-84
2022/08/13 03:28:54;;;;;;;12.50;8.00;;;;;;;21.86;56.63;94876.25;6138472;23;20463;-84
2022/08/13 03:31:20;;;;;;;12.45;7.40;;;;;;;22.01;56.68;94891.66;6135477;23;20594;-85
2022/08/13 03:33:46;;;;;;;15.75;7.80;;;;;;;22.07;56.71;94884.84;6137523;23;20743;-85
2022/08/13 03:36:13;;;;;;;11.32;6.68;;;;;;;22.55;56.53;94959.19;6138623;23;20100;-85
2022/08/13 03:38:39;;;;;;;10.80;7.60;;;;;;;21.98;56.31;94864.56;6136551;23;20021;-84
2022/08/13 03:41:14;;;;;;;17.65;7.97;;;;;;;22.00;56.54;94868.47;6135857;23;20084;-84
2022/08/13 03:43:45;;;;;;;12.98;7.60;;;;;;;22.40;57.23;94959.25;6135665;23;20068;-84
2022/08/13 03:46:16;;;;;;;;;;;;;;;22.48;57.22;94966.38;6136668;23;20018;-85
2022/08/13 03:48:44;;;;;;;13.88;7.60;;;;;;;21.73;57.02;94828.91;6135967;23;19916;-84
2022/08/13 03:51:11;;;;;;;16.13;7.65;;;;;;;21.76;56.81;94833.59;6136427;23;20013;-85
2022/08/13 03:53:38;;;;;;;16.65;7.80;;;;;;;22.18;57.03;94914.78;6135371;23;20020;-84
2022/08/13 03:56:05;;;;;;;12.35;7.45;;;;;;;21.89;57.55;94865.50;6136416;23;20009;-84
2022/08/13 03:58:32;;;;;;;10.05;7.53;;;;;;;22.59;57.60;94965.44;6138191;23;20436;-84
2022/08/13 04:00:58;;;;;;;14.30;7.03;;;;;;;22.17;57.47;94897.00;6139170;23;20016;-84
2022/08/13 04:03:30;;;;;;;14.63;8.35;;;;;;;22.40;58.01;94948.44;6138393;23;20025;-84
2022/08/13 04:06:01;;;;;;;11.20;7.30;;;;;;;22.63;57.43;94962.81;6141591;23;20092;-85
2022/08/13 04:08:30;;;;;;;10.98;7.68;;;;;;;22.44;57.45;94939.25;6140914;23;20341;-84
2022/08/13 04:10:57;;;;;;;11.88;7.18;;;;;;;22.66;57.81;94975.63;6157270;23;20114;-85
2022/08/13 04:13:27;;;;;;;11.00;7.78;;;;;;;22.15;58.29;94901.97;6155883;23;20017;-84
2022/08/13 04:15:52;;;;;;;12.65;7.65;;;;;;;22.59;58.36;94965.44;6139335;23;20010;-84
2022/08/13 04:18:18;;;;;;;14.80;8.15;;;;;;;22.55;58.42;94961.91;6138354;23;20017;-84
2022/08/13 04:20:52;;;;;;;14.02;8.20;;;;;;;22.62;58.38;94966.66;6138963;23;20014;-84
2022/08/13 04:23:19;;;;;;;12.30;7.85;;;;;;;22.10;58.50;94886.06;6139463;23;20121;-84
2022/08/13 04:25:46;;;;;;;14.95;8.07;;;;;;;20.56;58.30;94667.88;6137566;23;20018;-84
2022/08/13 04:28:13;;;;;;;12.95;7.32;;;;;;;22.39;58.34;94931.44;6138528;23;20009;-84
2022/08/13 04:30:41;;;;;;;11.05;7.63;;;;;;;22.70;58.12;94973.78;6137804;23;20524;-84
2022/08/13 04:33:15;;;;;;;11.23;7.18;;;;;;;22.70;58.01;94968.38;6138078;23;20044;-84
2022/08/13 04:35:45;;;;;;;11.88;7.53;;;;;;;22.64;58.35;94948.97;6139821;23;20338;-84
2022/08/13 04:38:12;;;;;;;16.38;7.95;;;;;;;22.57;58.05;94935.31;6137288;23;20460;-84
2022/08/13 04:40:41;;;;;;;13.85;7.88;;;;;;;22.82;58.28;94960.16;6139761;23;20022;-84
2022/08/13 04:43:07;;;;;;;11.13;7.38;;;;;;;22.30;58.15;94876.81;6138549;23;20536;-84
2022/08/13 04:45:34;;;;;;;16.20;8.27;;;;;;;22.65;58.01;94920.81;6139351;23;20020;-84
2022/08/13 04:48:09;;;;;;;13.55;7.55;;;;;;;22.53;57.88;94895.81;6139155;23;20036;-84
2022/08/13 04:50:36;;;;;;;11.38;7.75;;;;;;;22.44;57.76;94884.44;6138011;23;20047;-84
2022/08/13 04:53:04;;;;;;;12.50;9.00;;;;;;;22.99;57.60;94954.31;6137083;23;20068;-84
2022/08/13 04:55:30;;;;;;;15.77;8.88;;;;;;;22.81;57.36;94931.53;6137560;23;20017;-84
2022/08/13 04:57:56;;;;;;;13.13;9.40;;;;;;;22.93;56.37;94954.97;6139924;23;20009;-84
2022/08/13 05:00:24;;;;;;;16.02;9.65;;;;;;;22.23;56.65;94850.47;6136304;23;20527;-84
2022/08/13 05:02:52;;;;;;;20.92;8.68;;;;;;;22.67;56.94;94931.22;6139383;23;20014;-85
2022/08/13 05:05:18;;;;;;;13.30;8.95;;;;;;;22.48;57.33;94905.00;6137211;23;20022;-84
2022/08/13 05:07:47;;;;;;;11.38;8.68;;;;;;;22.43;57.58;94912.63;6136364;23;20308;-84
2022/08/13 05:10:13;;;;;;;10.73;8.90;;;;;;;22.76;57.41;94968.91;6136715;23;20013;-84
2022/08/13 05:12:38;;;;;;;21.63;8.68;;;;;;;22.47;57.25;94905.34;6137802;23;20036;-84
2022/08/13 05:15:06;;;;;;;20.73;9.60;;;;;;;22.65;57.27;94939.72;6139227;23;20451;-84
2022/08/13 05:17:32;;;;;;;13.80;8.52;;;;;;;22.64;57.05;94948.19;6136062;23;20009;-85
2022/08/13 05:19:59;;;;;;;11.65;9.02;;;;;;;22.32;57.21;94883.44;6137151;23;20037;-84
2022/08/13 05:22:29;;;;;;;25.35;9.38;;;;;;;22.87;57.06;94954.47;6139008;23;20009;-84
2022/08/13 05:24:55;;;;;;;13.75;9.65;;;;;;;22.71;57.01;94937.50;6139194;23;20569;-84
2022/08/13 05:27:21;;;;;;;19.13;9.02;;;;;;;22.69;57.27;94927.03;6137635;23;20082;-84
2022/08/13 05:29:47;;;;;;;18.00;9.25;;;;;;;22.73;57.83;94956.88;6139895;23;20013;-84
2022/08/13 05:32:13;;;;;;;17.90;9.85;;;;;;;22.44;58.04;94919.56;6139780;23;20009;-84
2022/08/13 05:34:38;;;;;;;21.52;10.23;;;;;;;22.47;58.03;94899.94;6139193;23;20495;-84
2022/08/13 05:37:15;;;;;;;22.55;9.98;;;;;;;22.59;58.09;94908.69;6138239;23;20033;-85
2022/08/13 05:39:43;;;;;;;15.23;9.50;;;;;;;22.91;57.90;94957.22;6139444;23;20048;-85
2022/08/13 05:42:09;;;;;;;21.85;9.93;;;;;;;22.45;58.22;94897.59;6137438;23;20216;-85
2022/08/13 05:44:34;;;;;;;18.23;11.07;;;;;;;22.58;58.18;94912.53;6138078;23;20022;-84
2022/08/13 05:46:59;;;;;;;22.30;10.45;;;;;;;22.11;58.24;94842.50;6144128;23;20025;-84
2022/08/13 05:49:25;;;;;;;19.15;10.27;;;;;;;22.63;57.71;94906.84;6137932;23;20039;-84
2022/08/13 05:51:51;;;;;;;15.20;9.98;;;;;;;22.88;56.95;94947.16;6141179;23;20432;-84
2022/08/13 05:54:18;;;;;;;17.92;9.18;;;;;;;22.85;56.82;94928.91;6137671;23;20021;-85
2022/08/13 05:56:43;;;;;;;14.57;9.65;;;;;;;22.45;57.41;94900.28;6139532;23;20413;-85
2022/08/13 06:03:23;;;;;;;21.70;11.27;;;;;;;22.53;57.88;94953.34;6137223;23;20021;-84
2022/08/13 06:04:41;;;;;;;14.65;9.30;;;;;;;22.89;56.28;94965.69;6138711;23;20021;-84
2022/08/13 06:07:13;;;;;;;14.70;8.95;;;;;;;22.49;55.65;94903.88;6137015;23;20013;-84
2022/08/13 06:09:39;;;;;;;20.70;10.30;;;;;;;22.61;55.71;94914.53;6139540;23;20013;-84
2022/08/13 06:12:05;;;;;;;18.02;10.30;;;;;;;23.14;55.41;94965.38;6138529;23;20120;-85
2022/08/13 06:14:35;;;;;;;13.15;9.65;;;;;;;23.13;55.15;94967.31;6137348;23;20500;-84
2022/08/13 06:17:02;;;;;;;16.10;10.73;;;;;;;23.07;54.85;94950.59;6138461;23;20001;-84
2022/08/13 06:19:32;;;;;;;18.48;10.00;;;;;;;22.72;54.72;94871.50;6138732;23;20010;-84
2022/08/13 06:22:03;;;;;;;15.48;10.63;;;;;;;23.26;54.97;94968.75;6136967;23;20009;-84
2022/08/13 06:24:35;;;;;;;17.63;11.40;;;;;;;22.98;58.13;94951.94;6136038;23;20013;-85
2022/08/13 06:27:04;;;;;;;17.85;11.88;;;;;;;22.52;58.66;94880.75;6111990;23;20021;-85
2022/08/13 06:29:34;;;;;;;15.70;11.68;;;;;;;22.60;57.93;94922.97;6139037;23;20471;-84
2022/08/13 06:32:03;;;;;;;19.52;11.75;;;;;;;22.69;58.12;94934.38;6137617;23;20703;-84
2022/08/13 06:34:31;;;;;;;19.90;12.02;;;;;;;22.87;57.53;94961.78;6137703;23;20020;-84
2022/08/13 06:36:58;;;;;;;23.42;11.35;;;;;;;23.03;57.17;94970.63;6135821;23;20005;-84
2022/08/13 06:39:25;;;;;;;24.63;10.77;;;;;;;22.06;57.44;94872.47;6136412;23;20009;-85
2022/08/13 06:41:51;;;;;;;16.83;11.15;;;;;;;21.92;57.43;94818.91;6139378;23;20041;-84
2022/08/13 06:44:17;;;;;;;20.77;12.57;;;;;;;22.09;57.87;94884.50;6137385;23;20041;-85
2022/08/13 06:46:43;;;;;;;23.23;12.70;;;;;;;22.06;58.12;94883.25;6136714;23;20131;-85
2022/08/13 06:49:11;;;;;;;18.63;12.25;;;;;;;20.96;57.42;94701.91;6135904;23;20186;-84
2022/08/13 06:51:37;;;;;;;20.23;13.38;;;;;;;22.21;57.13;94874.31;6135985;23;20453;-85
2022/08/13 06:54:08;;;;;;;22.75;12.10;;;;;;;22.46;57.26;94938.91;6136432;23;20476;-84
2022/08/13 06:56:34;;;;;;;16.07;10.43;;;;;;;22.03;56.48;94830.00;6139184;23;20025;-84
2022/08/13 06:59:00;;;;;;;13.20;8.52;;;;;;;22.04;55.57;94839.66;6136220;23;20256;-84
2022/08/13 07:01:28;;;;;;;16.23;8.57;;;;;;;22.29;55.65;94888.75;6136516;23;20020;-84
2022/08/13 07:03:56;;;;;;;15.60;8.48;;;;;;;22.82;54.54;94964.75;6135808;23;20427;-85
2022/08/13 07:06:25;;;;;;;12.32;8.45;;;;;;;22.79;54.67;94974.38;6135449;23;20025;-85
2022/08/13 07:08:54;;;;;;;10.48;8.38;;;;;;;20.63;54.29;94659.97;6136781;23;20017;-84
2022/08/13 07:11:23;;;;;;;9.25;8.07;;;;;;;22.20;54.14;94907.88;6136465;23;20018;-85
2022/08/13 07:13:52;;;;;;;14.88;9.10;;;;;;;22.59;54.08;94949.22;6137098;23;20013;-85
2022/08/13 07:16:21;;;;;;;11.02;8.00;;;;;;;22.07;53.99;94890.25;6136873;23;20138;-85
2022/08/13 07:18:49;;;;;;;14.90;8.57;;;;;;;22.72;53.55;94974.22;6139194;23;20040;-84
2022/08/13 07:21:19;;;;;;;13.57;7.95;;;;;;;21.71;53.45;94829.25;6136651;23;20371;-85
2022/08/13 07:23:47;;;;;;;11.38;7.72;;;;;;;22.05;53.36;94879.00;6136679;23;20013;-85
2022/08/13 07:26:16;;;;;;;11.52;8.35;;;;;;;22.71;53.80;94949.09;6137031;23;20530;-85
2022/08/13 07:28:45;;;;;;;15.85;8.57;;;;;;;23.06;53.56;94976.06;6137714;23;20458;-85
2022/08/13 07:31:13;;;;;;;13.45;8.77;;;;;;;22.75;53.99;94943.00;6136791;23;20040;-84
2022/08/13 07:33:44;;;;;;;15.93;9.27;;;;;;;22.31;54.58;94890.00;6136580;23;20022;-85
2022/08/13 07:36:14;;;;;;;18.25;9.23;;;;;;;23.14;53.57;94968.88;6137905;23;20463;-84
2022/08/13 07:38:43;;;;;;;15.68;9.00;;;;;;;22.55;53.64;94897.03;6136198;23;20013;-84
2022/08/13 07:41:13;;;;;;;15.85;9.07;;;;;;;23.17;53.66;94975.50;6136997;23;20397;-84
2022/08/13 07:43:43;;;;;;;14.50;9.57;;;;;;;23.08;53.50;94973.03;6138704;23;20017;-85
2022/08/13 07:46:15;;;;;;;13.20;8.48;;;;;;;22.76;53.57;94947.28;6139345;23;20045;-84
2022/08/13 07:48:52;;;;;;;12.30;8.55;;;;;;;22.28;54.32;94895.31;6140756;23;20013;-85
2022/08/13 07:51:22;;;;;;;18.85;9.18;;;;;;;22.71;53.68;94940.22;6139315;23;20013;-84
2022/08/13 07:53:49;;;;;;;17.88;9.63;;;;;;;23.13;53.31;94967.31;6138674;23;20203;-84
2022/08/13 07:56:28;;;;;;;16.83;9.95;;;;;;;23.10;53.15;94970.75;6138012;23;20029;-85
2022/08/13 07:59:12;;;;;;;13.23;8.32;;;;;;;23.17;52.53;94970.88;6138953;23;20138;-84
2022/08/13 08:01:49;;;;;;;16.13;8.85;;;;;;;22.83;52.59;94915.75;6141700;23;20014;-84
2022/08/13 08:04:16;;;;;;;17.48;7.85;;;;;;;23.20;51.76;94945.00;6140750;23;20017;-84
2022/08/13 08:06:47;;;;;;;15.35;8.60;;;;;;;23.21;51.46;94920.31;6137990;23;20413;-84
2022/08/13 08:09:17;;;;;;;10.38;8.45;;;;;;;22.79;52.96;94893.28;6139833;23;20020;-84
2022/08/13 08:14:28;;;;;;;15.60;8.70;;;;;;;23.51;51.22;94934.00;6138987;23;20091;-85
2022/08/13 08:16:54;;;;;;;11.23;8.15;;;;;;;23.17;52.01;94914.06;6136802;23;20014;-84
2022/08/13 08:19:20;;;;;;;13.45;8.40;;;;;;;23.66;51.74;94938.50;6138399;23;20057;-84
2022/08/13 08:21:47;;;;;;;9.88;7.68;;;;;;;23.82;51.00;94957.34;6138477;23;20099;-84
2022/08/13 08:24:15;;;;;;;12.70;8.30;;;;;;;23.78;50.91;94953.78;6140378;23;20036;-85
2022/08/13 08:26:45;;;;;;;14.68;8.23;;;;;;;23.32;50.51;94852.88;6139992;23;20025;-84
2022/08/13 08:29:11;;;;;;;15.73;8.80;;;;;;;23.56;51.54;94943.75;6139596;23;20386;-84
2022/08/13 08:31:39;;;;;;;17.38;8.05;;;;;;;23.89;51.12;94959.38;6139108;23;20115;-84
2022/08/13 08:34:07;;;;;;;13.07;9.00;;;;;;;23.35;50.83;94850.22;6137934;23;20024;-84
2022/08/13 08:36:37;;;;;;;14.18;7.80;;;;;;;23.96;50.61;94933.19;6137614;23;20412;-85
2022/08/13 08:44:36;;;;;;;15.32;8.43;;;;;;;23.83;51.09;94916.34;6140783;23;20023;-84
2022/08/13 08:47:02;;;;;;;12.35;8.45;;;;;;;24.37;50.36;94941.53;6137637;23;20021;-86
2022/08/13 08:49:30;;;;;;;12.93;8.30;;;;;;;24.07;50.28;94911.69;6137592;23;20309;-85
2022/08/13 08:51:58;;;;;;;13.25;8.75;;;;;;;24.20;50.54;94943.63;6139037;23;20449;-84
2022/08/13 08:54:25;;;;;;;16.38;8.40;;;;;;;24.05;50.58;94908.53;6140224;23;20009;-84
2022/08/13 08:56:55;;;;;;;20.75;8.27;;;;;;;24.37;50.24;94942.31;6138882;23;20025;-84
2022/08/13 08:59:23;;;;;;;14.48;8.68;;;;;;;24.30;50.40;94941.44;6139439;23;20060;-85
2022/08/13 09:01:52;;;;;;;10.85;8.63;;;;;;;23.88;50.24;94882.75;6138514;23;20496;-85
2022/08/13 09:04:19;;;;;;;15.25;9.80;;;;;;;23.69;49.93;94853.09;6140632;23;20017;-84
2022/08/13 09:06:49;;;;;;;14.95;9.57;;;;;;;24.01;50.38;94921.25;6138021;23;20425;-85
2022/08/13 09:09:16;;;;;;;13.30;8.98;;;;;;;22.65;50.32;94699.16;6139210;23;20013;-84
2022/08/13 09:11:43;;;;;;;14.75;9.43;;;;;;;24.17;50.32;94938.16;6137765;23;20009;-85
2022/08/13 09:14:10;;;;;;;14.10;9.00;;;;;;;23.70;50.42;94882.50;6139077;23;20838;-85
2022/08/13 09:16:39;;;;;;;14.02;8.93;;;;;;;23.74;49.83;94856.25;6139509;23;20016;-84
2022/08/13 09:19:12;;;;;;;18.08;9.57;;;;;;;24.14;50.45;94944.28;6137335;23;20451;-84
2022/08/13 09:21:46;;;;;;;13.60;8.77;;;;;;;24.15;50.43;94935.78;6139962;23;20334;-85
2022/08/13 09:24:15;;;;;;;14.20;8.77;;;;;;;23.81;50.43;94894.28;6138140;23;20378;-85
2022/08/13 09:26:51;;;;;;;13.10;9.07;;;;;;;24.03;50.55;94938.69;6138281;23;20132;-85
2022/08/13 09:29:23;;;;;;;16.75;9.13;;;;;;;23.76;50.93;94894.59;6140466;23;20080;-85
2022/08/13 09:31:50;;;;;;;15.90;8.70;;;;;;;23.79;51.18;94907.41;6140987;23;20084;-84
2022/08/13 09:34:17;;;;;;;9.23;7.88;;;;;;;23.17;51.49;94830.22;6139878;23;20009;-84
2022/08/13 09:36:43;;;;;;;11.18;8.20;;;;;;;23.22;51.67;94839.94;6138015;23;20032;-85
2022/08/13 09:39:19;;;;;;;13.52;8.63;;;;;;;23.57;52.02;94919.03;6137935;23;20084;-85
2022/08/13 09:41:50;;;;;;;16.67;9.10;;;;;;;23.40;52.20;94889.72;6138363;23;20025;-85
2022/08/13 09:44:17;;;;;;;21.20;10.00;;;;;;;23.37;52.18;94876.91;6137516;23;20432;-85
2022/08/13 09:46:43;;;;;;;12.18;9.05;;;;;;;23.31;52.13;94862.91;6137522;23;20441;-85
2022/08/13 09:49:11;;;;;;;15.23;8.88;;;;;;;23.48;52.23;94877.91;6137404;23;20020;-85
2022/08/13 09:51:37;;;;;;;17.45;8.85;;;;;;;23.88;52.07;94906.38;6137972;23;20017;-85
2022/08/13 09:54:05;;;;;;;14.02;9.07;;;;;;;24.14;51.79;94936.94;6137781;23;20516;-85
2022/08/13 09:56:37;;;;;;;13.05;8.23;;;;;;;24.21;51.62;94918.09;6137647;23;20009;-84
2022/08/13 09:59:04;;;;;;;14.90;10.68;;;;;;;24.15;51.88;94930.38;6139772;23;20025;-84
2022/08/13 10:01:29;;;;;;;13.95;9.75;;;;;;;24.19;52.89;94930.41;6139909;23;20453;-84
2022/08/13 10:03:55;;;;;;;23.70;9.75;;;;;;;23.50;54.16;94862.06;6139090;23;20009;-85
2022/08/13 10:06:20;;;;;;;14.90;9.93;;;;;;;23.78;54.37;94895.00;6136680;23;20563;-85
2022/08/13 10:08:46;;;;;;;15.80;10.05;;;;;;;24.07;53.70;94909.75;6139926;23;20356;-84
2022/08/13 10:11:15;;;;;;;16.92;11.75;;;;;;;23.85;54.13;94903.25;6137977;23;20020;-85
2022/08/13 10:13:42;;;;;;;14.15;10.32;;;;;;;23.85;54.54;94905.94;6138039;23;20107;-85
2022/08/13 10:16:07;;;;;;;21.50;9.55;;;;;;;23.58;54.35;94866.44;6137960;23;20124;-85
2022/08/13 10:18:33;;;;;;;16.02;10.15;;;;;;;23.45;54.56;94895.63;6137774;23;20053;-85
2022/08/13 10:20:59;;;;;;;13.43;9.77;;;;;;;23.50;55.16;94897.25;6137415;23;20091;-84
2022/08/13 10:23:25;;;;;;;12.77;10.00;;;;;;;23.35;55.69;94892.72;6137578;23;20343;-84
2022/08/13 10:25:52;;;;;;;15.15;10.10;;;;;;;22.59;56.84;94830.31;6138056;23;20140;-84
2022/08/13 10:28:31;;;;;;;16.98;11.30;;;;;;;23.17;57.43;94918.69;6138191;23;20048;-85
2022/08/13 10:30:58;;;;;;;18.60;11.73;;;;;;;23.10;57.97;94922.06;6139934;23;20546;-84
2022/08/13 10:33:24;;;;;;;15.65;11.20;;;;;;;22.51;58.33;94850.22;6138882;23;20014;-85
2022/08/13 10:35:53;;;;;;;21.10;10.98;;;;;;;23.05;58.92;94925.03;6137811;23;20020;-85
2022/08/13 10:38:26;;;;;;;19.20;10.75;;;;;;;23.25;58.15;94928.50;6137073;23;20026;-85
2022/08/13 10:41:04;;;;;;;28.13;10.48;;;;;;;23.15;58.45;94929.09;6136354;23;20490;-84
2022/08/13 10:43:31;;;;;;;15.43;11.60;;;;;;;22.69;59.83;94918.16;6136949;23;20068;-84
2022/08/13 10:45:59;;;;;;;18.30;10.90;;;;;;;22.59;59.98;94905.97;6136123;23;20388;-85
2022/08/13 10:48:26;;;;;;;15.63;9.70;;;;;;;22.23;59.39;94858.56;6137124;23;20024;-85
2022/08/13 10:50:53;;;;;;;19.55;11.75;;;;;;;21.82;60.51;94824.88;6137524;23;20099;-84
2022/08/13 10:56:22;;;;;;;15.27;11.20;;;;;;;22.27;62.56;94916.16;6077797;23;20019;-85
2022/08/13 10:58:49;;;;;;;17.13;11.93;;;;;;;22.48;64.02;94906.91;6118797;23;20076;-84
2022/08/13 11:01:15;;;;;;;22.05;13.52;;;;;;;22.15;65.95;94891.16;6137706;23;20016;-84
2022/08/13 11:03:44;;;;;;;21.27;14.82;;;;;;;22.23;68.64;94923.38;6137686;23;20575;-84
2022/08/13 11:06:11;;;;;;;23.25;14.00;;;;;;;21.83;69.05;94899.31;6138918;23;20618;-85
2022/08/13 11:08:37;;;;;;;23.92;13.82;;;;;;;21.35;69.56;94837.69;6138819;23;20013;-85
2022/08/13 11:11:10;;;;;;;18.38;14.73;;;;;;;21.85;71.58;94925.97;6137136;23;20020;-85
2022/08/13 11:13:37;;;;;;;20.02;13.82;;;;;;;21.42;70.90;94879.09;6140375;23;20235;-85
2022/08/13 11:16:56;;;;;;;17.27;14.02;;;;;;;20.74;70.61;94800.34;6138556;23;20135;-85
2022/08/13 11:18:54;;;;;;;29.98;14.38;;;;;;;20.57;71.08;94746.78;6139841;23;20514;-85
2022/08/13 11:21:21;;;;;;;19.88;14.80;;;;;;;21.56;72.22;94911.81;6138671;23;20009;-85
2022/08/13 11:23:46;;;;;;;15.98;13.27;;;;;;;21.14;72.13;94837.91;6139740;23;20017;-85
2022/08/13 11:26:12;;;;;;;20.05;16.42;;;;;;;20.32;72.24;94676.09;6137819;23;20353;-85
2022/08/13 11:28:38;;;;;;;22.08;14.85;;;;;;;21.90;72.80;94904.09;6139682;23;20063;-85
2022/08/13 11:31:03;;;;;;;20.27;13.52;;;;;;;21.50;72.00;94856.56;6137984;23;20610;-85
2022/08/13 11:33:30;;;;;;;16.92;13.10;;;;;;;21.91;70.04;94884.84;6139884;23;20456;-85
2022/08/13 11:35:56;;;;;;;14.88;11.35;;;;;;;20.86;67.51;94724.00;6137194;23;20009;-85
2022/08/13 11:38:23;;;;;;;14.43;10.80;;;;;;;22.10;66.70;94904.97;6142686;23;20009;-85
2022/08/13 11:40:54;;;;;;;15.52;11.65;;;;;;;21.58;68.66;94822.41;6136274;23;20026;-85
2022/08/13 11:43:26;;;;;;;14.40;11.13;;;;;;;21.85;66.49;94871.97;6136621;23;20741;-85
2022/08/13 11:45:52;;;;;;;16.90;11.63;;;;;;;20.61;68.35;94709.94;6137428;23;20021;-85
2022/08/13 11:48:19;;;;;;;12.15;10.82;;;;;;;21.75;65.21;94951.56;6138281;23;20458;-85
2022/08/13 11:50:46;;;;;;;17.38;11.25;;;;;;;21.09;65.14;94776.16;6139945;23;20013;-85
2022/08/13 11:53:11;;;;;;;19.65;12.98;;;;;;;22.03;67.40;94896.72;6135765;23;20009;-84
2022/08/13 11:55:37;;;;;;;12.77;11.32;;;;;;;21.64;66.32;94874.97;6138209;23;20021;-85